Tropical Cyclones
[Index]
Main Index Home Page Stock Weather Photos Extreme Storms Discussion Storm News and Storm Chasing Reports Tropical Cyclones / Hurricanes / Typhoons Weather Data and Links Wild Fires / Bushfires Weather Observation Techniques Weather Picture Catalogue Tornado Pictures and Reports Stock Video Footage and DVDs for sale
Season 1963-1964 Tropical Cyclone DORA Track Map
Season 1963-1964 Summaries: [BoM-AU] [JTWC-AU] [JTWC-SIO] [JTWC-SPAC] [JTWC-SH]
<<- Previous TC | BoM 1963-1964 Season | Next TC ->>

click for intensity scale information  Lat/long Grid: Show Hide

 Date Labels: Show Hide

Bureau of Meteorology Tropical Cyclone Data

Name: DORA
Number: 383 / 196364_05

27 Jan 1964 23:00 UTC to 07 Feb 1964 23:00 UTC

    date/time    lat    long    hPa   cat  kts
1964-01-27 23    9.2   131.0   1006                     
1964-01-28 11    9.7   132.2   1005                     
1964-01-28 23   10.0   133.2   1006                     
1964-01-29 11   10.6   134.5   1003                     
1964-01-29 23   11.0   135.7    999                     
1964-01-30 11   11.4   136.9    997                     
1964-01-30 23   11.7   137.5    985    2                
1964-01-31 11   12.5   137.9    981    2                
1964-01-31 23   13.1   138.5    981    2                
1964-02-01 11   13.7   139.2    980    2                
1964-02-01 23   14.0   139.7    980    2                
1964-02-02 11   14.3   140.6    977    2                
1964-02-02 23   14.7   141.4    974    2                
1964-02-03 02   15.0   141.6    974    2                
1964-02-03 05   15.2   141.8                            
1964-02-03 11   15.6   141.7    975    2                
1964-02-03 23   16.3   141.6    989    1                
1964-02-04 11   17.1   141.6    993    1                
1964-02-04 23   18.0   141.7    998                     
1964-02-05 11   18.8   141.7    999                     
1964-02-05 23   19.5   141.2   1001                     
1964-02-06 11   19.3   140.2   1000                     
1964-02-06 23   18.9   139.8   1000                     
1964-02-07 11   18.3   139.4    991    1                
1964-02-07 23   18.0   139.7    991    1                
Winds are 10-min average.

Tropical cyclone tracks developed by Michael Bath using data from the Bureau of Meteorology and Google Maps.


[Australian Severe Weather index] [Copyright Notice] [Email Contacts] [Search This Site] [Privacy Policy]
Document: tropical_cyclone_dora.htm Updated: 30 May 2013